createdAt,value
2022-07-25T00:00:32.463Z,4.35
2022-07-25T00:02:59.550Z,3.20
2022-07-25T00:05:27.128Z,3.05
2022-07-25T00:07:54.418Z,3.35
2022-07-25T00:10:21.567Z,3.28
2022-07-25T00:12:48.735Z,3.30
2022-07-25T00:15:15.987Z,2.78
2022-07-25T00:17:43.176Z,3.05
2022-07-25T00:20:10.548Z,3.28
2022-07-25T00:22:37.673Z,3.30
2022-07-25T00:25:05.028Z,3.33
2022-07-25T00:27:32.138Z,3.30
2022-07-25T00:29:59.300Z,4.10
2022-07-25T00:32:26.401Z,2.85
2022-07-25T00:34:53.559Z,3.97
2022-07-25T00:37:20.693Z,3.60
2022-07-25T00:39:47.794Z,3.45
2022-07-25T00:42:14.956Z,3.15
2022-07-25T00:44:42.094Z,3.20
2022-07-25T00:47:09.198Z,3.53
2022-07-25T00:49:36.288Z,3.33
2022-07-25T00:52:04.018Z,3.17
2022-07-25T00:54:31.332Z,3.40
2022-07-25T00:56:58.454Z,3.20
2022-07-25T00:59:25.549Z,3.08
2022-07-25T01:01:53.050Z,3.42
2022-07-25T01:04:20.556Z,3.30
2022-07-25T01:06:47.719Z,2.70
2022-07-25T01:09:15.036Z,3.08
2022-07-25T01:11:42.394Z,2.72
2022-07-25T01:14:09.742Z,3.72
2022-07-25T01:16:37.135Z,3.03
2022-07-25T01:19:04.486Z,3.17
2022-07-25T01:21:31.669Z,3.00
2022-07-25T01:23:58.902Z,3.45
2022-07-25T01:26:26.154Z,3.38
2022-07-25T01:28:53.221Z,3.25
2022-07-25T01:31:20.395Z,2.97
2022-07-25T01:33:47.545Z,2.72
2022-07-25T01:36:14.754Z,2.88
2022-07-25T01:38:41.846Z,3.13
2022-07-25T01:41:09.002Z,2.80
2022-07-25T01:43:36.190Z,3.08
2022-07-25T01:46:03.407Z,3.10
2022-07-25T01:48:30.597Z,3.10
2022-07-25T01:50:57.842Z,2.80
2022-07-25T01:53:24.965Z,3.03
2022-07-25T01:55:53.340Z,3.53
2022-07-25T01:58:21.606Z,3.03
2022-07-25T02:00:49.084Z,3.63
2022-07-25T02:03:32.052Z,3.00
2022-07-25T02:06:01.563Z,2.90
2022-07-25T02:08:30.049Z,3.10
2022-07-25T02:10:57.799Z,2.92
2022-07-25T02:13:25.560Z,2.97
2022-07-25T02:15:52.770Z,2.88
2022-07-25T02:18:19.870Z,2.67
2022-07-25T02:20:47.215Z,2.85
2022-07-25T02:23:14.322Z,3.25
2022-07-25T02:25:41.537Z,3.10
2022-07-25T02:28:10.621Z,2.78
2022-07-25T02:30:38.364Z,2.60
2022-07-25T02:33:05.748Z,2.65
2022-07-25T02:35:32.992Z,7.50
2022-07-25T02:38:00.095Z,2.80
2022-07-25T02:40:27.678Z,3.88
2022-07-25T02:42:54.806Z,3.08
2022-07-25T02:45:21.973Z,2.90
2022-07-25T02:47:49.252Z,2.78
2022-07-25T02:50:16.519Z,2.55
2022-07-25T02:52:44.287Z,3.05
2022-07-25T02:55:12.410Z,2.90
2022-07-25T02:57:39.663Z,2.83
2022-07-25T03:00:08.557Z,2.47
2022-07-25T03:02:35.846Z,3.08
2022-07-25T03:05:06.169Z,2.90
2022-07-25T03:07:33.225Z,2.97
2022-07-25T03:10:00.393Z,2.70
2022-07-25T03:12:27.698Z,2.83
2022-07-25T03:14:55.102Z,2.88
2022-07-25T03:17:22.197Z,2.88
2022-07-25T03:19:49.295Z,3.00
2022-07-25T03:22:16.392Z,2.90
2022-07-25T03:24:43.884Z,2.70
2022-07-25T03:27:11.096Z,2.92
2022-07-25T03:29:38.235Z,2.50
2022-07-25T03:32:05.971Z,2.28
2022-07-25T03:34:33.241Z,2.80
2022-07-25T03:37:00.653Z,2.45
2022-07-25T03:39:29.012Z,3.55
2022-07-25T03:41:56.957Z,2.58
2022-07-25T03:44:25.599Z,2.50
2022-07-25T03:46:52.835Z,2.83
2022-07-25T03:49:20.024Z,2.40
2022-07-25T03:51:47.231Z,2.80
2022-07-25T03:54:14.473Z,2.83
2022-07-25T03:56:44.327Z,2.53
2022-07-25T03:59:14.225Z,2.67
2022-07-25T04:01:42.754Z,2.58
2022-07-25T04:04:10.509Z,2.45
2022-07-25T04:06:38.642Z,2.70
2022-07-25T04:09:06.260Z,2.38
2022-07-25T04:11:33.625Z,2.80
2022-07-25T04:14:00.840Z,2.63
2022-07-25T04:16:28.101Z,2.42
2022-07-25T04:18:56.291Z,2.60
2022-07-25T04:21:25.037Z,2.50
2022-07-25T04:23:53.026Z,2.10
2022-07-25T04:26:20.664Z,2.55
2022-07-25T04:28:47.826Z,2.33
2022-07-25T04:31:15.589Z,2.33
2022-07-25T04:33:43.336Z,2.65
2022-07-25T04:36:10.982Z,2.22
2022-07-25T04:38:38.126Z,2.90
2022-07-25T04:41:05.549Z,2.72
2022-07-25T04:43:32.746Z,2.92
2022-07-25T04:45:59.981Z,2.40
2022-07-25T04:48:27.322Z,2.78
2022-07-25T04:50:54.664Z,2.92
2022-07-25T04:53:21.996Z,2.67
2022-07-25T04:55:49.106Z,2.60
2022-07-25T04:58:16.503Z,2.28
2022-07-25T05:00:43.874Z,2.72
2022-07-25T05:03:11.278Z,2.65
2022-07-25T05:05:38.419Z,2.88
2022-07-25T05:08:05.826Z,3.03
2022-07-25T05:10:32.999Z,3.05
2022-07-25T05:13:00.149Z,3.28
2022-07-25T05:15:27.297Z,2.83
2022-07-25T05:17:54.421Z,3.00
2022-07-25T05:20:21.891Z,3.67
2022-07-25T05:22:50.031Z,3.35
2022-07-25T05:25:17.209Z,4.70
2022-07-25T05:27:44.487Z,4.18
2022-07-25T05:30:12.570Z,3.55
2022-07-25T05:32:40.822Z,4.05
2022-07-25T05:35:09.596Z,3.50
2022-07-25T05:37:37.983Z,4.00
2022-07-25T05:40:06.773Z,4.10
2022-07-25T05:42:34.113Z,3.95
2022-07-25T05:45:05.188Z,6.13
2022-07-25T05:47:35.389Z,4.85
2022-07-25T05:50:05.972Z,5.90
2022-07-25T05:52:35.338Z,7.60
2022-07-25T05:55:02.839Z,6.00
2022-07-25T05:57:30.091Z,4.47
2022-07-25T05:59:58.074Z,5.47
2022-07-25T06:02:25.344Z,4.60
2022-07-25T06:04:52.614Z,4.53
2022-07-25T06:07:19.718Z,4.45
2022-07-25T06:09:46.798Z,4.68
2022-07-25T06:12:14.237Z,4.72
2022-07-25T06:14:41.439Z,5.97
2022-07-25T06:17:10.116Z,10.43
2022-07-25T06:19:37.481Z,8.27
2022-07-25T06:22:04.606Z,6.13
2022-07-25T06:24:31.758Z,6.70
2022-07-25T06:26:58.877Z,6.43
2022-07-25T06:29:26.008Z,9.10
2022-07-25T06:31:53.801Z,7.03
2022-07-25T06:34:20.986Z,6.68
2022-07-25T06:36:48.099Z,5.10
2022-07-25T06:39:15.270Z,8.80
2022-07-25T06:41:45.477Z,8.98
2022-07-25T06:44:13.595Z,8.07
2022-07-25T06:46:41.765Z,6.35
2022-07-25T06:49:09.081Z,9.13
2022-07-25T06:51:36.320Z,10.23
2022-07-25T06:54:04.160Z,5.25
2022-07-25T06:56:33.156Z,7.90
2022-07-25T06:59:01.042Z,8.07
2022-07-25T07:01:28.223Z,6.65
2022-07-25T07:03:56.111Z,5.63
2022-07-25T07:06:23.520Z,5.60
2022-07-25T07:08:52.249Z,5.85
2022-07-25T07:11:19.509Z,7.15
2022-07-25T07:13:46.730Z,8.68
2022-07-25T07:16:15.127Z,5.47
2022-07-25T07:18:45.803Z,5.32
2022-07-25T07:21:21.365Z,7.45
2022-07-25T07:23:49.557Z,4.97
2022-07-25T07:26:22.097Z,5.68
2022-07-25T07:28:49.316Z,6.15
2022-07-25T07:31:18.525Z,7.72
2022-07-25T07:33:46.136Z,8.10
2022-07-25T07:36:13.401Z,8.68
2022-07-25T07:38:41.672Z,7.38
2022-07-25T07:41:08.797Z,9.35
2022-07-25T07:43:36.102Z,5.80
2022-07-25T07:46:03.431Z,5.75
2022-07-25T07:48:31.849Z,5.55
2022-07-25T07:51:00.711Z,5.55
2022-07-25T07:53:49.850Z,5.93
2022-07-25T07:56:19.285Z,5.85
2022-07-25T07:58:47.347Z,8.55
2022-07-25T08:01:14.590Z,5.65
2022-07-25T08:03:41.744Z,7.95
2022-07-25T08:06:08.846Z,8.57
2022-07-25T08:08:35.983Z,5.05
2022-07-25T08:11:03.755Z,5.95
2022-07-25T08:13:34.170Z,5.07
2022-07-25T08:18:32.841Z,5.30
2022-07-25T08:21:03.114Z,6.03
2022-07-25T08:23:32.134Z,7.28
2022-07-25T08:25:59.596Z,8.27
2022-07-25T08:28:27.080Z,5.60
2022-07-25T08:30:55.039Z,6.75
2022-07-25T08:33:22.547Z,8.23
2022-07-25T08:35:55.259Z,5.82
2022-07-25T08:38:24.211Z,5.10
2022-07-25T08:40:51.971Z,5.60
2022-07-25T08:43:20.690Z,7.32
2022-07-25T08:45:50.983Z,8.55
2022-07-25T08:48:20.866Z,5.82
2022-07-25T08:50:49.298Z,5.32
2022-07-25T08:53:35.429Z,5.00
2022-07-25T08:56:13.323Z,7.85
2022-07-25T08:58:44.371Z,5.80
2022-07-25T09:01:15.202Z,6.90
2022-07-25T09:03:43.657Z,4.43
2022-07-25T09:06:20.326Z,4.60
2022-07-25T09:08:59.679Z,5.50
2022-07-25T09:11:29.580Z,5.15
2022-07-25T09:14:06.844Z,6.22
2022-07-25T09:16:41.333Z,6.35
2022-07-25T09:19:17.967Z,5.90
2022-07-25T09:21:58.006Z,6.07
2022-07-25T09:24:26.806Z,4.63
2022-07-25T09:26:56.237Z,4.72
2022-07-25T09:29:28.464Z,6.45
2022-07-25T09:31:56.930Z,6.40
2022-07-25T09:34:38.991Z,5.75
2022-07-25T09:37:08.546Z,7.07
2022-07-25T09:39:50.808Z,4.37
2022-07-25T09:42:22.326Z,5.90
2022-07-25T09:45:11.507Z,5.40
2022-07-25T09:47:54.650Z,4.22
2022-07-25T09:50:24.551Z,5.43
2022-07-25T09:52:53.725Z,5.07
2022-07-25T09:55:22.257Z,5.60
2022-07-25T09:57:50.470Z,6.88
2022-07-25T10:00:23.533Z,4.13
2022-07-25T10:03:30.508Z,5.35
2022-07-25T10:06:22.422Z,4.55
2022-07-25T10:08:51.182Z,4.95
2022-07-25T10:11:20.326Z,4.60
2022-07-25T10:13:47.528Z,4.70
2022-07-25T10:16:17.804Z,5.28
2022-07-25T10:18:54.136Z,6.03
2022-07-25T10:21:27.948Z,6.20
2022-07-25T10:24:07.835Z,6.10
2022-07-25T10:26:40.672Z,4.03
2022-07-25T10:29:10.610Z,4.28
2022-07-25T10:31:49.498Z,4.15
2022-07-25T10:34:30.984Z,4.40
2022-07-25T10:37:10.853Z,3.85
2022-07-25T10:39:40.281Z,5.82
2022-07-25T10:42:12.470Z,6.23
2022-07-25T10:44:45.312Z,4.30
2022-07-25T10:47:14.738Z,4.40
2022-07-25T10:50:06.791Z,6.72
2022-07-25T10:52:40.439Z,4.65
2022-07-25T10:55:07.995Z,3.88
2022-07-25T10:57:35.081Z,7.10
2022-07-25T11:00:07.821Z,4.65
2022-07-25T11:02:36.172Z,4.50
2022-07-25T11:05:04.992Z,5.05
2022-07-25T11:07:36.265Z,4.53
2022-07-25T11:10:05.882Z,4.10
2022-07-25T11:12:33.686Z,4.47
2022-07-25T11:15:04.122Z,4.20
2022-07-25T11:17:31.563Z,3.80
2022-07-25T11:20:03.324Z,4.45
2022-07-25T11:22:32.257Z,6.13
2022-07-25T11:25:00.287Z,4.70
2022-07-25T11:27:31.734Z,5.05
2022-07-25T11:30:17.088Z,4.95
2022-07-25T11:32:51.192Z,4.55
2022-07-25T11:35:23.110Z,4.88
2022-07-25T11:37:51.614Z,4.50
2022-07-25T11:40:20.667Z,4.53
2022-07-25T11:42:50.746Z,4.50
2022-07-25T11:45:23.510Z,4.38
2022-07-25T11:48:07.724Z,4.63
2022-07-25T11:50:37.428Z,6.35
2022-07-25T11:53:07.085Z,4.80
2022-07-25T11:55:37.524Z,4.70
2022-07-25T12:00:39.219Z,4.47
2022-07-25T12:03:09.067Z,5.03
2022-07-25T12:05:36.831Z,4.57
2022-07-25T12:08:12.275Z,6.05
2022-07-25T12:10:40.810Z,5.15
2022-07-25T12:13:10.670Z,5.00
2022-07-25T12:15:41.475Z,4.32
2022-07-25T12:18:10.757Z,5.10
2022-07-25T12:20:43.306Z,4.75
2022-07-25T12:23:12.775Z,5.85
2022-07-25T12:25:43.097Z,6.70
2022-07-25T12:28:11.449Z,5.25
2022-07-25T12:30:40.043Z,6.45
2022-07-25T12:33:07.743Z,5.05
2022-07-25T12:35:37.448Z,5.22
2022-07-25T12:38:05.082Z,6.22
2022-07-25T12:40:33.694Z,7.65
2022-07-25T12:43:01.408Z,4.85
2022-07-25T12:45:29.487Z,6.53
2022-07-25T12:47:56.957Z,9.90
2022-07-25T12:50:26.234Z,7.45
2022-07-25T12:52:53.513Z,7.45
2022-07-25T12:55:21.834Z,5.90
2022-07-25T12:57:50.133Z,5.78
2022-07-25T13:00:20.550Z,9.55
2022-07-25T13:05:15.505Z,4.80
2022-07-25T13:07:42.984Z,6.18
2022-07-25T13:10:11.127Z,5.25
2022-07-25T13:12:38.395Z,3.72
2022-07-25T13:15:06.114Z,4.35
2022-07-25T13:17:33.515Z,6.55
2022-07-25T13:20:01.126Z,4.70
2022-07-25T13:22:28.530Z,5.20
2022-07-25T13:24:56.001Z,4.57
2022-07-25T13:27:23.681Z,4.60
2022-07-25T13:29:54.805Z,5.05
2022-07-25T13:32:22.737Z,6.55
2022-07-25T13:34:50.100Z,4.20
2022-07-25T13:37:17.210Z,4.25
2022-07-25T13:39:44.459Z,4.32
2022-07-25T13:42:11.819Z,6.82
2022-07-25T13:44:38.979Z,5.18
2022-07-25T13:47:06.413Z,7.57
2022-07-25T13:49:34.057Z,4.63
2022-07-25T13:52:01.201Z,5.03
2022-07-25T13:54:31.563Z,5.03
2022-07-25T13:59:25.813Z,4.55
2022-07-25T14:01:53.139Z,5.63
2022-07-25T14:04:20.270Z,7.05
2022-07-25T14:06:52.156Z,5.70
2022-07-25T14:09:21.161Z,5.43
2022-07-25T14:11:48.842Z,5.10
2022-07-25T14:14:16.028Z,4.78
2022-07-25T14:16:43.552Z,4.85
2022-07-25T14:19:10.895Z,5.85
2022-07-25T14:21:38.201Z,4.80
2022-07-25T14:24:05.557Z,5.13
2022-07-25T14:26:34.657Z,6.00
2022-07-25T14:29:03.510Z,5.35
2022-07-25T14:31:32.254Z,5.40
2022-07-25T14:33:59.418Z,5.18
2022-07-25T14:36:26.645Z,5.80
2022-07-25T14:38:53.900Z,6.43
2022-07-25T14:41:22.057Z,5.40
2022-07-25T14:43:49.675Z,5.38
2022-07-25T14:46:16.985Z,4.50
2022-07-25T14:48:44.331Z,6.63
2022-07-25T14:51:11.617Z,7.10
2022-07-25T14:53:52.766Z,6.88
2022-07-25T14:56:20.481Z,5.25
2022-07-25T14:58:47.571Z,5.82
2022-07-25T15:01:18.808Z,7.00
2022-07-25T15:03:46.149Z,6.95
2022-07-25T15:06:13.385Z,5.43
2022-07-25T15:08:40.533Z,5.68
2022-07-25T15:11:07.665Z,5.50
2022-07-25T15:13:35.045Z,5.70
2022-07-25T15:16:03.705Z,5.40
2022-07-25T15:18:32.003Z,5.68
2022-07-25T15:20:59.336Z,5.43
2022-07-25T15:23:29.748Z,6.15
2022-07-25T15:26:01.793Z,4.78
2022-07-25T15:28:30.316Z,4.97
2022-07-25T15:30:57.433Z,8.07
2022-07-25T15:33:24.678Z,5.47
2022-07-25T15:35:52.141Z,4.82
2022-07-25T15:38:20.362Z,5.43
2022-07-25T15:40:47.780Z,6.35
2022-07-25T15:43:14.856Z,4.63
2022-07-25T15:45:43.469Z,5.25
2022-07-25T15:48:11.585Z,4.93
2022-07-25T15:50:43.889Z,4.95
2022-07-25T15:53:12.361Z,5.38
2022-07-25T15:55:41.029Z,6.30
2022-07-25T15:58:09.714Z,5.38
2022-07-25T16:00:38.678Z,8.50
2022-07-25T16:03:06.920Z,5.30
2022-07-25T16:05:34.512Z,4.78
2022-07-25T16:08:02.366Z,4.85
2022-07-25T16:10:33.242Z,4.68
2022-07-25T16:13:00.821Z,5.65
2022-07-25T16:15:28.346Z,6.70
2022-07-25T16:18:01.872Z,5.03
2022-07-25T16:20:29.839Z,3.78
2022-07-25T16:22:59.317Z,4.15
2022-07-25T16:25:28.212Z,4.68
2022-07-25T16:27:55.804Z,6.30
2022-07-25T16:30:23.016Z,4.30
2022-07-25T16:32:51.147Z,4.88
2022-07-25T16:35:18.316Z,4.68
2022-07-25T16:37:45.492Z,5.43
2022-07-25T16:40:14.325Z,4.82
2022-07-25T16:42:41.608Z,4.47
2022-07-25T16:45:10.542Z,4.13
2022-07-25T16:47:39.713Z,4.07
2022-07-25T16:50:08.425Z,3.92
2022-07-25T16:52:35.686Z,5.75
2022-07-25T16:55:02.818Z,5.25
2022-07-25T16:57:33.545Z,5.22
2022-07-25T17:00:04.760Z,3.97
2022-07-25T17:02:32.406Z,4.38
2022-07-25T17:04:59.957Z,4.45
2022-07-25T17:07:27.129Z,4.32
2022-07-25T17:09:54.346Z,6.45
2022-07-25T17:12:22.077Z,5.05
2022-07-25T17:14:49.401Z,4.05
2022-07-25T17:17:16.519Z,6.63
2022-07-25T17:19:43.726Z,8.93
2022-07-25T17:22:11.121Z,4.32
2022-07-25T17:24:39.290Z,4.65
2022-07-25T17:27:07.223Z,10.07
2022-07-25T17:29:34.774Z,6.45
2022-07-25T17:32:02.279Z,4.68
2022-07-25T17:34:29.379Z,4.18
2022-07-25T17:36:57.364Z,4.38
2022-07-25T17:39:25.436Z,5.25
2022-07-25T17:41:52.721Z,4.28
2022-07-25T17:44:20.328Z,3.40
2022-07-25T17:46:50.295Z,5.78
2022-07-25T17:51:44.864Z,4.32
2022-07-25T17:54:12.230Z,6.70
2022-07-25T17:56:39.492Z,4.30
2022-07-25T17:59:08.374Z,4.15
2022-07-25T18:01:35.546Z,6.35
2022-07-25T18:04:02.709Z,4.00
2022-07-25T18:06:30.220Z,3.95
2022-07-25T18:08:57.905Z,4.05
2022-07-25T18:11:25.144Z,4.20
2022-07-25T18:13:52.246Z,3.78
2022-07-25T18:16:19.479Z,5.53
2022-07-25T18:18:46.702Z,3.50
2022-07-25T18:21:13.789Z,3.60
2022-07-25T18:23:40.944Z,4.03
2022-07-25T18:26:09.387Z,4.13
2022-07-25T18:28:36.552Z,3.50
2022-07-25T18:31:04.645Z,4.05
2022-07-25T18:33:31.857Z,3.72
2022-07-25T18:36:01.774Z,3.35
2022-07-25T18:38:32.013Z,4.78
2022-07-25T18:41:26.552Z,3.92
2022-07-25T18:43:46.361Z,3.58
2022-07-25T18:46:15.438Z,4.17
2022-07-25T18:48:43.766Z,3.70
2022-07-25T18:51:11.531Z,4.25
2022-07-25T18:53:38.919Z,3.75
2022-07-25T18:56:06.260Z,3.20
2022-07-25T18:58:33.336Z,3.53
2022-07-25T19:01:02.885Z,3.53
2022-07-25T19:03:32.885Z,3.65
2022-07-25T19:06:03.427Z,3.25
2022-07-25T19:08:31.332Z,4.43
2022-07-25T19:10:58.446Z,4.25
2022-07-25T19:13:47.621Z,3.25
2022-07-25T19:16:12.732Z,3.95
2022-07-25T19:18:40.553Z,3.25
2022-07-25T19:21:07.732Z,3.22
2022-07-25T19:23:35.207Z,4.28
2022-07-25T19:26:03.161Z,3.97
2022-07-25T19:28:30.535Z,3.15
2022-07-25T19:30:57.883Z,3.55
2022-07-25T19:33:25.140Z,3.63
2022-07-25T19:36:02.488Z,3.45
2022-07-25T19:38:29.571Z,3.33
2022-07-25T19:40:56.749Z,3.92
2022-07-25T19:43:23.885Z,2.90
2022-07-25T19:45:51.387Z,3.72
2022-07-25T19:48:18.604Z,3.45
2022-07-25T19:50:46.259Z,3.28
2022-07-25T19:53:13.369Z,3.17
2022-07-25T19:55:40.509Z,5.00
2022-07-25T19:58:08.546Z,3.17
2022-07-25T20:00:35.845Z,3.53
2022-07-25T20:03:03.287Z,3.58
2022-07-25T20:05:30.418Z,3.53
2022-07-25T20:07:57.493Z,3.85
2022-07-25T20:10:24.859Z,3.40
2022-07-25T20:12:51.937Z,3.33
2022-07-25T20:15:19.078Z,3.58
2022-07-25T20:17:46.247Z,3.20
2022-07-25T20:20:13.490Z,3.33
2022-07-25T20:22:42.115Z,3.22
2022-07-25T20:25:11.861Z,5.68
2022-07-25T20:27:39.213Z,3.35
2022-07-25T20:30:08.103Z,3.22
2022-07-25T20:32:36.317Z,3.92
2022-07-25T20:35:05.476Z,3.50
2022-07-25T20:37:32.674Z,3.15
2022-07-25T20:39:59.839Z,3.58
2022-07-25T20:42:27.033Z,3.42
2022-07-25T20:44:54.135Z,3.65
2022-07-25T20:47:21.273Z,3.80
2022-07-25T20:49:48.417Z,3.08
2022-07-25T20:52:15.578Z,3.10
2022-07-25T20:54:43.225Z,3.72
2022-07-25T20:57:11.846Z,3.33
2022-07-25T20:59:38.962Z,2.80
2022-07-25T21:02:06.187Z,3.25
2022-07-25T21:04:33.328Z,3.92
2022-07-25T21:07:00.549Z,3.08
2022-07-25T21:09:32.381Z,2.92
2022-07-25T21:12:01.236Z,3.72
2022-07-25T21:14:28.599Z,4.00
2022-07-25T21:16:55.864Z,3.58
2022-07-25T21:19:23.058Z,3.17
2022-07-25T21:21:50.523Z,3.60
2022-07-25T21:24:17.698Z,3.10
2022-07-25T21:26:45.269Z,3.08
2022-07-25T21:29:12.657Z,4.07
2022-07-25T21:31:39.881Z,3.17
2022-07-25T21:34:07.139Z,3.28
2022-07-25T21:36:35.119Z,3.00
2022-07-25T21:39:02.265Z,3.05
2022-07-25T21:41:29.401Z,3.38
2022-07-25T21:43:57.333Z,3.08
2022-07-25T21:46:24.739Z,3.70
2022-07-25T21:49:12.292Z,3.30
2022-07-25T21:51:40.902Z,3.15
2022-07-25T21:54:08.597Z,3.38
2022-07-25T21:56:35.720Z,3.50
2022-07-25T21:59:03.023Z,2.90
2022-07-25T22:01:30.196Z,3.67
2022-07-25T22:03:57.546Z,3.65
2022-07-25T22:06:24.802Z,3.67
2022-07-25T22:08:51.940Z,4.45
2022-07-25T22:11:39.141Z,3.53
2022-07-25T22:14:06.300Z,3.33
2022-07-25T22:16:33.453Z,3.20
2022-07-25T22:19:00.750Z,3.42
2022-07-25T22:21:27.920Z,3.50
2022-07-25T22:23:55.053Z,3.60
2022-07-25T22:26:22.227Z,3.42
2022-07-25T22:28:50.788Z,3.50
2022-07-25T22:31:18.252Z,3.63
2022-07-25T22:33:45.460Z,3.95
2022-07-25T22:36:12.611Z,3.53
2022-07-25T22:38:39.794Z,3.42
2022-07-25T22:43:56.529Z,3.25
2022-07-25T22:46:24.066Z,3.15
2022-07-25T22:48:51.248Z,3.60
2022-07-25T22:51:18.391Z,4.18
2022-07-25T22:53:45.485Z,3.35
2022-07-25T22:56:12.691Z,3.13
2022-07-25T22:58:39.839Z,3.50
2022-07-25T23:01:06.982Z,3.63
2022-07-25T23:03:35.129Z,4.07
2022-07-25T23:06:02.361Z,3.97
2022-07-25T23:08:29.464Z,3.53
2022-07-25T23:10:56.699Z,3.33
2022-07-25T23:13:23.851Z,3.03
2022-07-25T23:15:51.442Z,3.40
2022-07-25T23:18:19.368Z,3.15
2022-07-25T23:20:46.816Z,3.47
2022-07-25T23:23:14.323Z,2.95
2022-07-25T23:25:41.548Z,4.00
2022-07-25T23:28:08.674Z,3.55
2022-07-25T23:30:40.238Z,2.97
2022-07-25T23:33:08.296Z,3.22
2022-07-25T23:35:35.930Z,3.00
2022-07-25T23:38:03.486Z,3.70
2022-07-25T23:40:30.776Z,3.42
2022-07-25T23:42:58.434Z,3.60
2022-07-25T23:45:28.125Z,3.17
2022-07-25T23:47:56.969Z,3.08
2022-07-25T23:50:25.272Z,3.20
2022-07-25T23:52:52.686Z,3.28
2022-07-25T23:55:19.994Z,3.03
2022-07-25T23:57:47.269Z,3.30
